Time;durP1;ratioP1;P1;durP2;ratioP2;P2;SDS_P1;SDS_P2;PMS_P1;PMS_P2;Temp;Humidity;BMP_temperature;BMP_pressure;BME280_temperature;BME280_humidity;BME280_pressure;Samples;Min_cycle;Max_cycle;Signal;HPM_P1;HPM_P2
2021/06/16 00:00:21;;;;;;;5.03;3.72;;;18.50;99.90;;;;;;5095206;28;20031;-86
2021/06/16 00:02:46;;;;;;;4.18;3.40;;;18.50;99.90;;;;;;5094503;28;20035;-86
2021/06/16 00:05:16;;;;;;;5.20;3.15;;;18.50;99.90;;;;;;5094857;28;20036;-86
2021/06/16 00:07:42;;;;;;;4.38;3.42;;;18.50;99.90;;;;;;5094492;28;20544;-86
2021/06/16 00:10:09;;;;;;;3.70;3.40;;;18.50;99.90;;;;;;5094383;28;20047;-85
2021/06/16 00:12:36;;;;;;;5.28;3.58;;;18.50;99.90;;;;;;5093889;28;20043;-86
2021/06/16 00:15:12;;;;;;;4.03;3.33;;;18.60;99.90;;;;;;5093779;28;20020;-86
2021/06/16 00:17:38;;;;;;;3.55;3.25;;;18.60;99.90;;;;;;5093783;28;20032;-86
2021/06/16 00:20:05;;;;;;;5.03;3.70;;;18.50;99.90;;;;;;5093723;28;20061;-86
2021/06/16 00:22:30;;;;;;;4.00;3.60;;;18.60;99.90;;;;;;5093657;28;20036;-86
2021/06/16 00:24:56;;;;;;;5.68;3.92;;;18.50;99.90;;;;;;5094936;28;20032;-86
2021/06/16 00:27:22;;;;;;;5.22;3.60;;;18.60;99.90;;;;;;5114408;28;20034;-86
2021/06/16 00:29:47;;;;;;;5.10;3.97;;;18.50;99.90;;;;;;5094596;28;20122;-86
2021/06/16 00:32:13;;;;;;;3.38;3.08;;;18.60;99.90;;;;;;5093352;28;20036;-86
2021/06/16 00:34:39;;;;;;;3.72;3.42;;;18.50;99.90;;;;;;5093364;28;20447;-86
2021/06/16 00:37:05;;;;;;;5.20;3.40;;;18.60;99.90;;;;;;5093323;28;20043;-86
2021/06/16 00:39:31;;;;;;;3.63;3.00;;;18.50;99.90;;;;;;5093237;28;20016;-85
2021/06/16 00:41:57;;;;;;;3.00;2.80;;;18.50;99.90;;;;;;5093073;28;20114;-86
2021/06/16 00:44:22;;;;;;;2.88;2.58;;;18.60;99.90;;;;;;5093038;28;20035;-86
2021/06/16 00:46:48;;;;;;;3.10;2.45;;;18.50;99.90;;;;;;5093040;28;20032;-86
2021/06/16 00:49:14;;;;;;;3.42;2.72;;;18.50;99.90;;;;;;5092969;28;20469;-86
2021/06/16 00:51:39;;;;;;;2.70;2.50;;;18.50;99.90;;;;;;5098602;28;20048;-85
2021/06/16 00:54:10;;;;;;;2.55;2.35;;;18.50;99.90;;;;;;5098036;28;20444;-86
2021/06/16 00:56:45;;;;;;;2.30;2.10;;;18.50;99.90;;;;;;5092873;28;20383;-86
2021/06/16 00:59:11;;;;;;;3.00;2.70;;;18.50;99.90;;;;;;5093000;28;20020;-86
2021/06/16 01:01:43;;;;;;;3.92;2.65;;;18.50;99.90;;;;;;5092711;28;20542;-86
2021/06/16 01:04:21;;;;;;;2.50;2.30;;;18.50;99.90;;;;;;5092806;28;20061;-85
2021/06/16 01:06:56;;;;;;;2.83;2.58;;;18.40;99.90;;;;;;5092782;28;20059;-85
2021/06/16 01:09:57;;;;;;;3.08;2.88;;;18.40;99.90;;;;;;5092766;28;20027;-85
2021/06/16 01:12:32;;;;;;;4.55;2.97;;;18.40;99.90;;;;;;5079737;28;20123;-86
2021/06/16 01:15:09;;;;;;;2.92;2.63;;;18.40;99.90;;;;;;5094037;28;20444;-86
2021/06/16 01:17:43;;;;;;;2.97;2.70;;;18.40;99.90;;;;;;5092567;28;20461;-85
2021/06/16 01:20:20;;;;;;;4.20;3.80;;;18.30;99.90;;;;;;5092437;28;20116;-85
2021/06/16 01:22:58;;;;;;;4.97;3.50;;;18.30;99.90;;;;;;5092761;28;20058;-85
2021/06/16 01:25:45;;;;;;;3.88;3.47;;;18.30;99.90;;;;;;5092458;28;20032;-86
2021/06/16 01:28:12;;;;;;;4.28;3.80;;;18.20;99.90;;;;;;5094184;28;20115;-85
2021/06/16 01:30:40;;;;;;;4.22;3.20;;;18.20;99.90;;;;;;5093575;28;20158;-85
2021/06/16 01:33:09;;;;;;;4.28;3.20;;;18.20;99.90;;;;;;5092741;28;20467;-86
2021/06/16 01:35:38;;;;;;;3.90;3.60;;;18.10;99.90;;;;;;5092390;28;20059;-85
2021/06/16 01:38:06;;;;;;;5.95;3.60;;;18.10;99.90;;;;;;5092955;28;20028;-86
2021/06/16 01:40:32;;;;;;;6.15;3.88;;;18.10;99.90;;;;;;5093715;28;20025;-86
2021/06/16 01:43:01;;;;;;;4.60;4.10;;;18.10;99.90;;;;;;5092617;28;20060;-86
2021/06/16 01:45:30;;;;;;;5.82;4.22;;;18.10;99.90;;;;;;5092328;28;20036;-85
2021/06/16 01:47:59;;;;;;;4.93;3.95;;;18.10;99.90;;;;;;5093838;28;20062;-86
2021/06/16 01:50:26;;;;;;;3.65;3.35;;;18.10;99.90;;;;;;5092248;28;20024;-87
2021/06/16 01:53:05;;;;;;;4.18;3.78;;;18.10;99.90;;;;;;5093940;28;20074;-86
2021/06/16 01:55:31;;;;;;;4.10;3.80;;;18.10;99.90;;;;;;5092399;28;20443;-86
2021/06/16 01:57:58;;;;;;;4.40;4.00;;;18.10;99.90;;;;;;5092855;28;20066;-86
2021/06/16 02:00:24;;;;;;;4.60;4.00;;;18.10;99.90;;;;;;5094108;28;20016;-86
2021/06/16 02:02:50;;;;;;;4.22;3.83;;;18.10;99.90;;;;;;5107529;28;20044;-86
2021/06/16 02:05:19;;;;;;;5.03;4.45;;;18.10;99.90;;;;;;5107620;28;20129;-87
2021/06/16 02:07:55;;;;;;;5.20;4.15;;;18.00;99.90;;;;;;5092423;28;20402;-87
2021/06/16 02:10:27;;;;;;;5.00;4.50;;;18.00;99.90;;;;;;5092951;28;20023;-86
2021/06/16 02:12:57;;;;;;;4.47;4.07;;;18.00;99.90;;;;;;5092873;28;20469;-87
2021/06/16 02:15:34;;;;;;;4.32;3.90;;;18.00;99.90;;;;;;5092766;28;20098;-86
2021/06/16 02:18:01;;;;;;;3.80;3.50;;;18.00;99.90;;;;;;5092505;28;20081;-88
2021/06/16 02:20:27;;;;;;;4.05;3.75;;;18.00;99.90;;;;;;5092736;28;20052;-87
2021/06/16 02:22:53;;;;;;;3.97;3.65;;;18.00;99.90;;;;;;5092539;28;20042;-87
2021/06/16 02:25:20;;;;;;;3.97;3.50;;;18.10;99.90;;;;;;5092217;28;20071;-86
2021/06/16 02:27:45;;;;;;;3.92;3.63;;;18.10;99.90;;;;;;5093267;28;20032;-87
2021/06/16 02:30:12;;;;;;;4.32;3.38;;;18.10;99.90;;;;;;5092176;28;20030;-87
2021/06/16 02:32:37;;;;;;;4.10;3.70;;;18.10;99.90;;;;;;5097400;28;20036;-88
2021/06/16 02:35:05;;;;;;;4.30;3.90;;;18.10;99.90;;;;;;5096119;28;20065;-87
2021/06/16 02:37:32;;;;;;;5.20;3.42;;;18.10;99.90;;;;;;5096211;28;20423;-88
2021/06/16 02:40:03;;;;;;;4.57;3.10;;;18.10;99.90;;;;;;5095874;28;20028;-88
2021/06/16 02:42:30;;;;;;;4.07;3.67;;;18.10;99.90;;;;;;5095679;28;20035;-87
2021/06/16 02:44:57;;;;;;;3.58;3.28;;;18.10;99.90;;;;;;5096998;28;20114;-87
2021/06/16 02:47:23;;;;;;;3.85;3.55;;;18.10;99.90;;;;;;5096970;28;20034;-87
2021/06/16 02:49:54;;;;;;;4.38;3.97;;;18.20;99.90;;;;;;5097134;28;20024;-88
2021/06/16 02:52:28;;;;;;;5.10;3.60;;;18.30;99.90;;;;;;5100226;28;20032;-86
2021/06/16 02:55:02;;;;;;;3.45;3.15;;;18.30;99.90;;;;;;5097157;28;20024;-88
2021/06/16 02:57:32;;;;;;;3.95;3.35;;;18.40;99.90;;;;;;5097264;28;20032;-88
2021/06/16 03:00:00;;;;;;;3.65;3.35;;;18.40;99.90;;;;;;5095801;28;20062;-87
2021/06/16 03:02:28;;;;;;;3.80;3.33;;;18.40;99.90;;;;;;5095807;28;20028;-87
2021/06/16 03:08:16;;;;;;;3.33;3.13;;;18.50;99.90;;;;;;5097704;28;20047;-88
2021/06/16 03:10:43;;;;;;;3.25;3.05;;;18.50;99.90;;;;;;5096725;28;20020;-87
2021/06/16 03:13:10;;;;;;;3.55;3.25;;;18.50;99.90;;;;;;5099563;28;20461;-88
2021/06/16 03:15:46;;;;;;;3.58;3.30;;;18.60;99.90;;;;;;5095757;28;20154;-88
2021/06/16 03:18:14;;;;;;;3.22;3.03;;;18.60;99.90;;;;;;5097016;28;20038;-89
2021/06/16 03:20:41;;;;;;;3.40;3.20;;;18.60;99.90;;;;;;5096203;28;20035;-88
2021/06/16 03:23:11;;;;;;;4.60;3.15;;;18.60;99.90;;;;;;5096136;28;20033;-88
2021/06/16 03:25:38;;;;;;;3.45;3.20;;;18.70;99.90;;;;;;5096300;28;20036;-88
2021/06/16 03:28:06;;;;;;;3.28;2.97;;;18.80;99.90;;;;;;5096906;28;20114;-89
2021/06/16 03:30:32;;;;;;;4.45;3.05;;;19.00;99.90;;;;;;5096194;28;20020;-88
2021/06/16 03:32:59;;;;;;;3.78;3.13;;;19.10;99.90;;;;;;5096405;28;20032;-89
2021/06/16 03:35:26;;;;;;;4.88;3.25;;;19.20;99.90;;;;;;5096347;28;20020;-89
2021/06/16 03:37:53;;;;;;;3.15;2.92;;;19.30;99.90;;;;;;5096300;28;20036;-89
2021/06/16 03:40:20;;;;;;;2.95;2.75;;;19.40;99.90;;;;;;5096867;28;20122;-89
2021/06/16 03:42:48;;;;;;;2.95;2.75;;;19.50;99.90;;;;;;5097863;28;20465;-89
2021/06/16 03:45:14;;;;;;;2.88;2.67;;;19.50;99.90;;;;;;5095683;28;20032;-89
2021/06/16 03:47:43;;;;;;;2.88;2.65;;;19.50;99.90;;;;;;5095357;28;20032;-88
2021/06/16 03:50:14;;;;;;;2.83;2.63;;;19.50;99.90;;;;;;5095202;28;20024;-89
2021/06/16 03:52:41;;;;;;;2.88;2.67;;;19.50;99.90;;;;;;5103644;28;20093;-88
2021/06/16 03:55:09;;;;;;;2.65;2.25;;;19.60;99.90;;;;;;5095442;28;20404;-89
2021/06/16 03:57:36;;;;;;;2.78;2.58;;;19.60;99.90;;;;;;5095084;28;20028;-89
2021/06/16 04:00:04;;;;;;;2.50;2.30;;;19.60;99.90;;;;;;5095991;28;20032;-89
2021/06/16 04:02:31;;;;;;;3.15;2.58;;;19.60;99.90;;;;;;5096133;28;20055;-89
2021/06/16 04:05:04;;;;;;;2.60;2.40;;;19.70;99.90;;;;;;5097245;28;20055;-89
2021/06/16 04:07:31;;;;;;;2.35;2.25;;;19.60;99.90;;;;;;5093317;28;20473;-89
2021/06/16 04:09:57;;;;;;;2.53;2.33;;;19.70;99.90;;;;;;5092271;28;20020;-90
2021/06/16 04:12:23;;;;;;;2.72;2.53;;;19.60;99.90;;;;;;5093115;28;20043;-90
2021/06/16 04:14:50;;;;;;;3.35;2.85;;;19.60;99.90;;;;;;5093387;28;20485;-89
2021/06/16 04:17:18;;;;;;;2.42;2.30;;;19.50;99.90;;;;;;5093504;28;20032;-89
2021/06/16 04:19:44;;;;;;;2.28;2.10;;;19.50;99.90;;;;;;5094915;28;20016;-90
2021/06/16 04:22:10;;;;;;;2.50;2.30;;;19.50;99.90;;;;;;5095199;28;20036;-89
2021/06/16 04:24:36;;;;;;;2.72;2.53;;;19.60;99.90;;;;;;5094932;28;20039;-89
2021/06/16 04:27:02;;;;;;;3.53;2.40;;;19.60;99.90;;;;;;5094871;28;20032;-89
2021/06/16 04:29:28;;;;;;;2.95;2.75;;;19.60;99.90;;;;;;5095629;28;20020;-89
2021/06/16 04:31:55;;;;;;;2.90;2.70;;;19.60;99.90;;;;;;5095498;28;20017;-89
2021/06/16 04:34:21;;;;;;;2.63;2.42;;;19.60;99.90;;;;;;5093718;28;20032;-89
2021/06/16 04:36:47;;;;;;;2.65;2.45;;;19.60;99.90;;;;;;5093228;28;20123;-89
2021/06/16 04:39:12;;;;;;;2.80;2.60;;;19.70;99.90;;;;;;5094980;28;20384;-89
2021/06/16 04:41:38;;;;;;;2.78;2.47;;;19.70;99.90;;;;;;5093022;28;20024;-90
2021/06/16 04:44:04;;;;;;;2.80;2.53;;;19.90;99.90;;;;;;5092639;28;20386;-89
2021/06/16 04:46:30;;;;;;;2.55;2.35;;;20.00;99.90;;;;;;5093936;28;20069;-89
2021/06/16 04:48:56;;;;;;;2.58;2.38;;;20.10;99.90;;;;;;5093063;28;20073;-89
2021/06/16 04:51:21;;;;;;;2.60;2.40;;;20.30;99.90;;;;;;5092939;28;20020;-89
2021/06/16 04:53:47;;;;;;;2.60;2.40;;;20.40;99.90;;;;;;5096172;28;20427;-88
2021/06/16 04:56:15;;;;;;;4.78;2.80;;;20.60;99.90;;;;;;5094512;28;20028;-89
2021/06/16 04:58:40;;;;;;;2.45;2.25;;;20.70;99.90;;;;;;5095624;28;20020;-89
2021/06/16 05:01:06;;;;;;;3.47;2.72;;;20.90;99.90;;;;;;5097557;28;20112;-89
2021/06/16 05:03:32;;;;;;;2.40;2.25;;;21.10;99.90;;;;;;5098263;28;20074;-89
2021/06/16 05:05:58;;;;;;;2.97;2.78;;;21.20;99.90;;;;;;5095781;28;20465;-88
2021/06/16 05:08:23;;;;;;;2.80;2.10;;;21.30;99.90;;;;;;5096333;28;20039;-88
2021/06/16 05:10:49;;;;;;;3.10;2.50;;;21.40;99.90;;;;;;5095838;28;20062;-89
2021/06/16 05:13:25;;;;;;;3.63;2.83;;;21.40;99.90;;;;;;5096295;28;20032;-89
2021/06/16 05:15:52;;;;;;;2.63;2.20;;;21.40;99.90;;;;;;5098402;28;20389;-88
2021/06/16 05:18:19;;;;;;;2.83;2.63;;;21.40;99.90;;;;;;5098736;28;20196;-89
2021/06/16 05:20:45;;;;;;;2.50;2.30;;;21.40;99.90;;;;;;5095510;28;20047;-89
2021/06/16 05:23:11;;;;;;;2.72;2.53;;;21.40;99.90;;;;;;5096759;28;20031;-88
2021/06/16 05:25:39;;;;;;;4.75;2.83;;;21.50;99.90;;;;;;5094268;28;20039;-89
2021/06/16 05:28:05;;;;;;;4.43;2.47;;;21.50;99.90;;;;;;5094680;28;20036;-89
2021/06/16 05:30:31;;;;;;;2.72;2.53;;;21.60;99.90;;;;;;5096753;28;20027;-88
2021/06/16 05:32:57;;;;;;;2.72;2.53;;;21.60;99.90;;;;;;5095885;28;20085;-89
2021/06/16 05:35:23;;;;;;;3.22;2.65;;;21.60;99.90;;;;;;5097283;28;20023;-89
2021/06/16 05:37:49;;;;;;;3.20;2.70;;;21.60;99.90;;;;;;5097234;28;20046;-89
2021/06/16 05:40:15;;;;;;;2.90;2.70;;;21.60;99.90;;;;;;5099605;28;20031;-89
2021/06/16 05:42:42;;;;;;;2.80;2.60;;;21.70;99.90;;;;;;5102609;28;20074;-90
2021/06/16 05:45:11;;;;;;;2.95;2.65;;;21.80;99.90;;;;;;5099136;28;20032;-88
2021/06/16 05:47:37;;;;;;;2.85;2.60;;;21.90;99.90;;;;;;5097485;28;20034;-90
2021/06/16 05:50:04;;;;;;;2.75;2.55;;;22.00;99.90;;;;;;5097294;28;20028;-90
2021/06/16 05:52:31;;;;;;;2.47;2.28;;;22.10;99.90;;;;;;5097248;28;20036;-90
2021/06/16 05:54:56;;;;;;;3.13;2.83;;;22.20;99.90;;;;;;5079801;28;20035;-90
2021/06/16 05:57:22;;;;;;;2.80;2.60;;;22.50;99.90;;;;;;5095273;28;20035;-90
2021/06/16 05:59:48;;;;;;;3.05;2.40;;;22.70;99.90;;;;;;5100876;28;20020;-90
2021/06/16 06:02:14;;;;;;;2.70;2.50;;;22.90;99.90;;;;;;5115800;28;20016;-90
2021/06/16 06:04:39;;;;;;;2.38;2.28;;;23.20;99.90;;;;;;5106627;28;20131;-90
2021/06/16 06:07:05;;;;;;;3.95;2.50;;;23.40;99.90;;;;;;5099187;28;20056;-90
2021/06/16 06:09:31;;;;;;;2.80;2.50;;;23.60;99.90;;;;;;5099443;28;20035;-87
2021/06/16 06:11:58;;;;;;;3.05;2.85;;;23.70;99.90;;;;;;5099393;28;20101;-88
2021/06/16 06:14:24;;;;;;;3.35;2.45;;;23.90;99.90;;;;;;5097744;28;20442;-89
2021/06/16 06:16:50;;;;;;;2.75;2.40;;;24.10;99.90;;;;;;5098796;28;20032;-88
2021/06/16 06:19:16;;;;;;;3.15;2.95;;;24.20;99.90;;;;;;5100498;28;20016;-89
2021/06/16 06:21:42;;;;;;;2.70;2.50;;;24.40;99.90;;;;;;5103522;28;20024;-89
2021/06/16 06:24:08;;;;;;;2.92;2.70;;;24.60;99.90;;;;;;5097413;28;20063;-89
2021/06/16 06:26:34;;;;;;;2.70;2.50;;;24.80;99.30;;;;;;5096637;28;20035;-88
2021/06/16 06:29:01;;;;;;;2.83;2.60;;;25.10;99.00;;;;;;5098497;28;20477;-89
2021/06/16 06:31:27;;;;;;;2.90;2.67;;;25.40;98.20;;;;;;5096289;28;20077;-89
2021/06/16 06:33:53;;;;;;;2.60;2.40;;;25.50;96.40;;;;;;5094997;28;20035;-89
2021/06/16 06:36:19;;;;;;;2.95;2.65;;;25.60;94.00;;;;;;5094512;28;20432;-90
2021/06/16 06:38:46;;;;;;;3.05;2.85;;;25.60;93.20;;;;;;5095646;28;20477;-90
2021/06/16 06:41:12;;;;;;;2.80;2.60;;;25.60;93.30;;;;;;5094712;28;20392;-91
2021/06/16 06:43:38;;;;;;;3.20;2.60;;;25.60;92.40;;;;;;5094881;28;20032;-90
2021/06/16 06:46:04;;;;;;;3.10;2.80;;;25.60;91.80;;;;;;5096339;28;20028;-91
2021/06/16 06:48:30;;;;;;;2.75;2.55;;;25.70;91.40;;;;;;5097945;28;20109;-90
2021/06/16 06:51:02;;;;;;;3.03;2.83;;;25.70;90.90;;;;;;5097556;28;20565;-90
2021/06/16 06:53:29;;;;;;;2.83;2.63;;;25.70;90.20;;;;;;5097771;28;20032;-90
2021/06/16 06:55:58;;;;;;;3.40;3.10;;;25.80;90.60;;;;;;5095474;28;20027;-89
2021/06/16 06:58:24;;;;;;;3.35;3.08;;;26.10;91.10;;;;;;5097827;28;20395;-88
2021/06/16 07:00:50;;;;;;;2.90;2.70;;;26.50;90.00;;;;;;5095938;28;20047;-87
2021/06/16 07:03:16;;;;;;;3.20;2.90;;;27.00;89.10;;;;;;5095765;28;20683;-91
2021/06/16 07:05:42;;;;;;;2.88;2.50;;;27.60;85.90;;;;;;5095659;28;20056;-91
2021/06/16 07:08:07;;;;;;;2.80;2.60;;;28.00;84.10;;;;;;5094678;28;20534;-91
2021/06/16 07:10:33;;;;;;;3.10;2.80;;;28.40;81.20;;;;;;5093916;28;20020;-90
2021/06/16 07:12:59;;;;;;;2.80;2.60;;;28.50;77.90;;;;;;5094329;28;20120;-90
2021/06/16 07:15:24;;;;;;;2.75;2.55;;;28.70;77.80;;;;;;5093719;28;20055;-90
2021/06/16 07:17:50;;;;;;;2.95;2.45;;;29.10;77.40;;;;;;5093796;28;20074;-88
2021/06/16 07:20:22;;;;;;;5.35;2.60;;;29.30;76.00;;;;;;5112438;28;20025;-87
2021/06/16 07:22:59;;;;;;;3.13;2.83;;;29.40;74.20;;;;;;5103054;28;20035;-92
2021/06/16 07:25:26;;;;;;;3.15;2.42;;;29.30;73.60;;;;;;5093202;28;20036;-87
2021/06/16 07:27:52;;;;;;;4.18;2.83;;;29.30;73.80;;;;;;5092939;28;20020;-88
2021/06/16 07:30:18;;;;;;;3.45;2.42;;;29.70;73.10;;;;;;5097507;28;20078;-89
2021/06/16 07:32:44;;;;;;;2.70;2.50;;;30.20;72.90;;;;;;5094978;28;20073;-89
2021/06/16 07:35:12;;;;;;;2.45;2.25;;;30.60;71.00;;;;;;5095722;28;20036;-88
2021/06/16 07:37:38;;;;;;;3.20;2.88;;;30.80;69.30;;;;;;5094554;28;20024;-90
2021/06/16 07:40:08;;;;;;;2.70;2.50;;;30.70;67.60;;;;;;5093852;28;20028;-90
2021/06/16 07:42:34;;;;;;;2.60;2.40;;;30.40;67.60;;;;;;5093925;28;20032;-89
2021/06/16 07:45:00;;;;;;;4.05;2.70;;;30.10;67.30;;;;;;5093477;28;20157;-89
2021/06/16 07:47:25;;;;;;;2.85;2.60;;;29.80;67.60;;;;;;5094180;28;20024;-90
2021/06/16 07:49:51;;;;;;;3.08;2.78;;;29.50;67.20;;;;;;5094148;28;20020;-90
2021/06/16 07:52:17;;;;;;;3.13;2.92;;;29.30;68.20;;;;;;5093266;28;20438;-89
2021/06/16 07:54:43;;;;;;;2.83;2.63;;;29.10;68.60;;;;;;5094661;28;20040;-89
2021/06/16 07:57:08;;;;;;;3.00;2.80;;;29.00;68.70;;;;;;5093211;28;20166;-89
2021/06/16 07:59:34;;;;;;;3.80;2.55;;;28.90;69.00;;;;;;5090467;28;20039;-88
2021/06/16 08:02:00;;;;;;;3.47;2.78;;;28.80;69.30;;;;;;5091430;28;20037;-88
2021/06/16 08:04:26;;;;;;;2.70;2.53;;;28.60;69.10;;;;;;5091952;28;20113;-89
2021/06/16 08:06:52;;;;;;;3.75;3.33;;;28.40;69.10;;;;;;5091891;28;20432;-89
2021/06/16 08:09:18;;;;;;;5.22;3.10;;;28.00;69.20;;;;;;5093159;28;20028;-89
2021/06/16 08:11:44;;;;;;;2.80;2.58;;;27.70;69.70;;;;;;5093463;28;20109;-88
2021/06/16 08:14:10;;;;;;;2.45;2.35;;;27.30;70.60;;;;;;5093434;28;20155;-88
2021/06/16 08:16:36;;;;;;;3.40;2.72;;;27.20;71.10;;;;;;5094363;28;20028;-88
2021/06/16 08:19:02;;;;;;;3.05;2.70;;;27.10;71.50;;;;;;5094254;28;20078;-88
2021/06/16 08:21:28;;;;;;;3.08;2.85;;;27.00;71.40;;;;;;5093768;28;20115;-88
2021/06/16 08:23:54;;;;;;;2.80;2.60;;;26.90;71.90;;;;;;5093785;28;20074;-87
2021/06/16 08:26:20;;;;;;;2.70;2.50;;;26.80;72.40;;;;;;5093564;28;20024;-89
2021/06/16 08:28:45;;;;;;;2.75;2.55;;;26.70;72.70;;;;;;5109356;28;20043;-89
2021/06/16 08:31:11;;;;;;;2.90;2.67;;;26.80;73.30;;;;;;5106845;28;20032;-89
2021/06/16 08:33:39;;;;;;;3.53;3.22;;;27.00;73.90;;;;;;5093033;28;20028;-90
2021/06/16 08:36:05;;;;;;;2.83;2.63;;;27.70;74.30;;;;;;5091623;28;20024;-89
2021/06/16 08:38:31;;;;;;;3.28;2.97;;;28.40;72.60;;;;;;5091531;28;20024;-88
2021/06/16 08:41:03;;;;;;;2.67;2.47;;;28.60;69.80;;;;;;5091605;28;20103;-88
2021/06/16 08:43:36;;;;;;;2.70;2.40;;;28.70;69.50;;;;;;5091872;28;20040;-89
2021/06/16 08:46:04;;;;;;;3.08;2.70;;;28.70;68.50;;;;;;5092397;28;20028;-88
2021/06/16 08:48:30;;;;;;;3.63;2.67;;;28.60;68.90;;;;;;5093165;28;20024;-88
2021/06/16 08:50:55;;;;;;;2.65;2.45;;;28.50;69.00;;;;;;5095584;28;20121;-88
2021/06/16 08:53:24;;;;;;;4.00;2.90;;;28.50;69.30;;;;;;5097421;28;20111;-89
2021/06/16 08:55:50;;;;;;;2.80;2.60;;;28.50;69.30;;;;;;5092166;28;20040;-87
2021/06/16 08:58:16;;;;;;;2.85;2.65;;;28.50;69.40;;;;;;5091981;28;20027;-89
2021/06/16 09:00:43;;;;;;;2.95;2.55;;;28.70;69.70;;;;;;5093523;28;20032;-90
2021/06/16 09:03:09;;;;;;;2.80;2.60;;;29.20;70.70;;;;;;5100714;28;20076;-89
2021/06/16 09:05:39;;;;;;;2.67;2.47;;;30.20;71.30;;;;;;5093354;28;20457;-90
2021/06/16 09:08:23;;;;;;;2.63;2.42;;;31.40;69.60;;;;;;5093427;28;20066;-90
2021/06/16 09:10:50;;;;;;;2.60;2.40;;;32.30;64.80;;;;;;5092931;28;20024;-90
2021/06/16 09:13:28;;;;;;;2.28;2.13;;;33.40;65.50;;;;;;5094343;28;20485;-89
2021/06/16 09:15:55;;;;;;;2.03;1.92;;;34.40;61.80;;;;;;5094176;28;20036;-88
2021/06/16 09:18:21;;;;;;;2.22;2.03;;;34.80;61.30;;;;;;5093671;28;20074;-90
2021/06/16 09:20:49;;;;;;;2.80;2.50;;;34.80;60.10;;;;;;5081229;28;20101;-88
2021/06/16 09:23:20;;;;;;;4.00;2.40;;;34.60;58.50;;;;;;5099862;28;20029;-88
2021/06/16 09:26:18;;;;;;;2.13;1.92;;;34.60;57.80;;;;;;5098755;28;20028;-87
2021/06/16 09:28:54;;;;;;;2.00;1.90;;;34.90;58.30;;;;;;5095013;28;20119;-89
2021/06/16 09:31:36;;;;;;;1.92;1.83;;;35.10;58.00;;;;;;5076008;28;20048;-91
2021/06/16 09:34:10;;;;;;;1.80;1.70;;;35.10;56.80;;;;;;5076991;28;20036;-90
2021/06/16 09:36:51;;;;;;;2.17;1.98;;;35.10;56.70;;;;;;5087796;28;20754;-91
2021/06/16 09:39:28;;;;;;;2.13;2.00;;;35.60;55.10;;;;;;5086995;28;20044;-91
2021/06/16 09:41:59;;;;;;;2.30;2.10;;;36.00;54.90;;;;;;5071146;28;20032;-90
2021/06/16 09:44:45;;;;;;;1.70;1.60;;;36.40;54.30;;;;;;5069873;28;20048;-90
2021/06/16 09:47:31;;;;;;;1.75;1.65;;;36.50;52.30;;;;;;5086629;28;20032;-90
2021/06/16 09:49:59;;;;;;;1.60;1.40;;;36.40;52.80;;;;;;5072293;28;20028;-89
2021/06/16 09:52:29;;;;;;;3.17;1.80;;;36.50;52.80;;;;;;5073485;28;20486;-91
2021/06/16 09:54:54;;;;;;;1.60;1.50;;;36.70;49.80;;;;;;5073598;28;20066;-91
2021/06/16 09:57:20;;;;;;;1.67;1.50;;;36.70;50.10;;;;;;5070093;28;20028;-91
2021/06/16 09:59:46;;;;;;;2.17;1.65;;;36.80;49.80;;;;;;5090284;28;20035;-91
2021/06/16 10:02:19;;;;;;;1.50;1.40;;;36.80;49.80;;;;;;5092958;28;20032;-90
2021/06/16 10:04:47;;;;;;;1.20;1.10;;;36.90;50.30;;;;;;5092480;28;20089;-91
2021/06/16 10:07:14;;;;;;;1.20;1.10;;;37.10;47.70;;;;;;5091195;28;20036;-90
2021/06/16 10:09:53;;;;;;;1.33;1.23;;;37.10;47.40;;;;;;5092096;28;20038;-92
2021/06/16 10:12:21;;;;;;;1.35;1.23;;;36.90;47.10;;;;;;5092733;28;20125;-91
2021/06/16 10:14:47;;;;;;;1.50;1.40;;;37.10;48.10;;;;;;5092432;28;20471;-90
2021/06/16 10:17:16;;;;;;;1.27;1.17;;;37.00;46.80;;;;;;5093871;28;20481;-91
2021/06/16 10:19:43;;;;;;;1.38;1.20;;;37.10;47.10;;;;;;5092093;28;20047;-90
2021/06/16 10:22:11;;;;;;;1.98;1.30;;;37.00;46.30;;;;;;5091896;28;20070;-89
2021/06/16 10:24:37;;;;;;;1.50;1.40;;;36.50;45.90;;;;;;5091021;28;20016;-91
2021/06/16 10:27:06;;;;;;;1.50;1.40;;;35.80;46.90;;;;;;5093083;28;20504;-91
2021/06/16 10:29:40;;;;;;;2.55;1.45;;;35.10;47.10;;;;;;5089721;28;20032;-90
2021/06/16 10:32:07;;;;;;;1.38;1.27;;;34.40;47.50;;;;;;5089690;28;20115;-90
2021/06/16 10:35:10;;;;;;;1.48;1.38;;;33.60;48.50;;;;;;5090570;28;20540;-88
2021/06/16 10:37:42;;;;;;;1.30;1.20;;;32.90;49.40;;;;;;5013393;28;20415;-91
2021/06/16 10:40:17;;;;;;;1.40;1.30;;;32.30;49.30;;;;;;5082465;28;20044;-90
2021/06/16 10:43:05;;;;;;;0.98;0.98;;;31.70;49.70;;;;;;5092564;28;20043;-90
2021/06/16 10:45:33;;;;;;;1.10;1.10;;;31.00;50.90;;;;;;5092085;28;20039;-90
2021/06/16 10:48:04;;;;;;;1.95;1.30;;;30.50;51.10;;;;;;5092110;28;20448;-90
2021/06/16 10:50:45;;;;;;;1.63;1.35;;;29.80;51.70;;;;;;5093135;28;20350;-89
2021/06/16 10:53:13;;;;;;;1.40;1.30;;;29.10;52.80;;;;;;5095709;28;20119;-90
2021/06/16 10:55:57;;;;;;;1.60;1.40;;;28.30;55.10;;;;;;5095891;28;20071;-88
2021/06/16 10:58:31;;;;;;;2.45;1.70;;;27.50;59.30;;;;;;5095058;28;20081;-90
2021/06/16 11:01:15;;;;;;;1.60;1.50;;;26.90;59.50;;;;;;5094803;28;20028;-91
2021/06/16 11:03:50;;;;;;;;;;;26.10;66.20;;;;;;5095556;28;20020;-88
2021/06/16 11:06:43;;;;;;;2.50;1.60;;;25.30;66.20;;;;;;5095174;28;20343;-91
2021/06/16 11:09:14;;;;;;;2.20;1.70;;;24.50;69.70;;;;;;5098195;28;20028;-91
2021/06/16 11:12:00;;;;;;;1.75;1.60;;;24.10;71.80;;;;;;5093694;28;20124;-92
2021/06/16 11:14:36;;;;;;;1.50;1.40;;;23.90;73.00;;;;;;5101420;28;20047;-91
2021/06/16 11:17:20;;;;;;;1.50;1.40;;;23.80;76.90;;;;;;5102402;28;20385;-91
2021/06/16 11:19:54;;;;;;;1.60;1.50;;;23.80;82.40;;;;;;5097568;28;20047;-91
2021/06/16 11:22:20;;;;;;;1.88;1.60;;;23.80;86.80;;;;;;5095866;28;20374;-90
2021/06/16 11:25:21;;;;;;;2.13;1.92;;;23.80;89.80;;;;;;5095262;28;20089;-90
2021/06/16 11:27:59;;;;;;;2.20;2.00;;;23.60;89.70;;;;;;5094745;28;20032;-91
2021/06/16 11:30:30;;;;;;;2.67;2.42;;;23.40;93.10;;;;;;5094558;28;20024;-89
2021/06/16 11:33:15;;;;;;;7.85;2.40;;;23.20;94.60;;;;;;5094804;28;20074;-89
2021/06/16 11:36:00;;;;;;;2.20;2.00;;;23.00;94.50;;;;;;5095454;28;20039;-90
2021/06/16 11:38:31;;;;;;;3.08;2.70;;;22.90;97.20;;;;;;5105524;28;20024;-91
2021/06/16 11:41:10;;;;;;;4.18;2.88;;;22.60;97.90;;;;;;5095629;28;20024;-91
2021/06/16 11:43:57;;;;;;;2.67;2.47;;;22.50;98.40;;;;;;5098719;28;20021;-89
2021/06/16 11:46:34;;;;;;;3.60;2.35;;;22.30;99.30;;;;;;5094573;28;20035;-91
2021/06/16 11:49:11;;;;;;;2.13;1.98;;;22.20;99.80;;;;;;5094355;28;20358;-91
2021/06/16 11:51:55;;;;;;;2.05;1.90;;;22.10;99.90;;;;;;5093350;28;20097;-92
2021/06/16 11:54:22;;;;;;;2.03;1.67;;;22.10;99.90;;;;;;5095349;28;20035;-92
2021/06/16 11:56:57;;;;;;;2.35;1.95;;;22.00;99.90;;;;;;5093100;28;20477;-91
2021/06/16 11:59:43;;;;;;;1.75;1.40;;;22.10;99.90;;;;;;5093452;28;20043;-91
2021/06/16 12:02:20;;;;;;;1.52;1.42;;;22.10;99.90;;;;;;5093188;28;20032;-90
2021/06/16 12:05:01;;;;;;;1.63;1.52;;;22.10;99.90;;;;;;5093061;28;20029;-91
2021/06/16 12:07:31;;;;;;;1.35;1.20;;;22.20;99.90;;;;;;5095285;28;20415;-91
2021/06/16 12:10:00;;;;;;;1.50;1.40;;;22.30;99.90;;;;;;5094818;28;20165;-91
2021/06/16 12:12:26;;;;;;;1.17;1.05;;;22.40;99.90;;;;;;5096175;28;20028;-90
2021/06/16 12:15:13;;;;;;;1.52;1.00;;;22.50;99.90;;;;;;5096271;28;20512;-90
2021/06/16 12:18:04;;;;;;;2.50;1.23;;;22.60;99.90;;;;;;5095343;28;20032;-91
2021/06/16 12:20:33;;;;;;;2.22;1.30;;;22.70;99.90;;;;;;5092950;28;20024;-91
2021/06/16 12:23:00;;;;;;;1.75;1.65;;;22.70;99.90;;;;;;5094178;28;20020;-91
2021/06/16 12:25:32;;;;;;;2.97;2.63;;;22.80;99.90;;;;;;5094952;28;20035;-91
2021/06/16 12:27:59;;;;;;;2.88;2.58;;;22.80;99.90;;;;;;5095335;28;20046;-91
2021/06/16 12:30:28;;;;;;;3.72;2.63;;;23.00;99.90;;;;;;5094695;28;20082;-91
2021/06/16 12:33:36;;;;;;;3.03;2.70;;;23.20;99.90;;;;;;5094343;28;20024;-89
2021/06/16 12:36:08;;;;;;;3.28;2.70;;;24.30;99.90;;;;;;5084266;28;20044;-89
2021/06/16 12:38:46;;;;;;;2.47;2.25;;;25.70;99.90;;;;;;5093852;28;20392;-89
2021/06/16 12:41:22;;;;;;;2.40;2.20;;;27.30;99.90;;;;;;5096541;28;20358;-89
2021/06/16 12:43:48;;;;;;;2.47;1.80;;;28.60;96.90;;;;;;5093399;28;20030;-89
2021/06/16 12:46:14;;;;;;;3.10;1.70;;;29.80;99.00;;;;;;5093678;28;20040;-89
2021/06/16 12:48:40;;;;;;;1.60;1.50;;;30.80;95.00;;;;;;5093478;28;20054;-89
2021/06/16 12:51:06;;;;;;;2.08;1.88;;;31.20;89.50;;;;;;5092927;28;20118;-88
2021/06/16 12:53:55;;;;;;;3.40;1.83;;;31.50;83.80;;;;;;5093202;28;20431;-89
2021/06/16 12:56:21;;;;;;;2.95;1.70;;;32.10;79.60;;;;;;5094954;28;20046;-89
2021/06/16 12:58:48;;;;;;;1.70;1.60;;;32.70;78.70;;;;;;5094468;28;20103;-91
2021/06/16 13:01:21;;;;;;;2.67;1.45;;;33.20;75.60;;;;;;5092703;28;20549;-89
2021/06/16 13:03:50;;;;;;;1.40;1.30;;;33.70;68.60;;;;;;5093638;28;20078;-91